Impacts TAF Board INFO
FOR SITUATIONAL AWARENESS. NOT TO BE USED FOR FLIGHT PLANNING PURPOSES.
IDs:

KCLE - Cleveland/Hopkins In, OH, US

Issued at 2338 UTC 23 Feb 2018
Updated at 0006 UTC 24 Feb 2018
Potential Impact None Slight Moderate High
Time<<24/13Z 24/14Z 24/15Z 24/16Z 24/17Z 24/18Z 24/19Z 24/20Z 24/21Z 24/22Z 24/23Z 25/00Z 25/01Z>>
Type PRVL PRVL PRVL PRVL PRVL PRVL PRVL PRVL PRVL PRVL PRVL PRVL PRVL
VIS 6 6 6 6 >6 >6 >6 >6 >6 4 4 4 4
CIG 15 15 15 15 8 8 8 8 8 6 6 6 6
Cover OVC OVC OVC OVC OVC OVC OVC OVC OVC OVC OVC OVC OVC
FltCat MVFR MVFR MVFR MVFR IFR IFR IFR IFR IFR IFR IFR IFR IFR
WX BR BR BR BR VCSH VCSH VCSH VCSH VCSH -RA -RA -RA -RA
WDir 40 40 40 40 50 50 50 50 50 90 90 90 90
WSpd 6 6 6 6 6 6 6 6 6 10 10 10 10
WGst -- -- -- -- -- -- -- -- -- -- -- -- --

Raw TAF
KCLE 232338Z 2400/2506 30010KT P6SM OVC035
  TEMPO 2400/2404 OVC025
  FM240800 35004KT 4SM BR OVC025
  FM241100 04006KT 6SM BR OVC015
  FM241700 05006KT P6SM VCSH OVC008
  FM242200 09010KT 4SM -RA OVC006


METAR Board
Radar Display
Forecast Discussion

FOR SITUATIONAL AWARENESS. NOT TO BE USED FOR FLIGHT PLANNING PURPOSES.